Colden Common, United Kingdom
Current Conditions -  °F | °C
As of 12:20 PM on Friday 28 Nov 2014 (Local Time) from EGHI Reporting Station
Broken Clouds Broken Clouds  
Wind Chill: 11°   Ceiling: 1200
Heat Index: 11°   Visibility: 6mi
Dew Point:   Wind: 8mph
Humidity: 88%   Direction: 70°ENE
Pressure: 29.53"   Gusts: NA
Location:  50.99°N, 1.31°W
Report Text: EGHI 281220Z 07007KT 020V120 9999 BKN012 11/09 Q1000
Loading
Personal Weather Stations






























Interactive Weather Map New forecast layout! Learn more

10-Day Weather Forecast

Advertisements
Track Severe Weather on mobile